Stations météo

Publicité
Briancon, France (7593): Température de l'air & dewpoint: 12.02.2020 07:00:00 - 18.02.2020 07:00:00 (CET)Briancon, France (7593): Vitesse du vent: 12.02.2020 07:00:00 - 18.02.2020 07:00:00 (CET)Briancon, France (7593): Direction du vent: 12.02.2020 07:00:00 - 18.02.2020 07:00:00 (CET)Briancon, France (7593): Quantités de précipitations: 12.02.2020 07:00:00 - 18.02.2020 07:00:00 (CET)
Date & Time tt [°C] td [°C] ff [km/h] ff [knt] dd rr [mm]
18.02.2020 07:00:00 - - - - - -
18.02.2020 06:00:00 2,4 -7,8 14 7 E 0,0
18.02.2020 05:00:00 2,5 -7,7 7 4 E 0,0
18.02.2020 04:00:00 3,3 -6,1 13 7 E 0,0
18.02.2020 03:00:00 3,2 -6,2 14 8 ENE 0,0
18.02.2020 02:00:00 4,3 -6,9 13 7 ENE 0,0
18.02.2020 01:00:00 4,9 -6,1 11 6 NE 0,0
18.02.2020 00:00:00 3,6 0,5 3 1 ENE 0,0
17.02.2020 23:00:00 4,6 0,2 4 2 ENE 0,0
17.02.2020 22:00:00 5,3 1,4 14 8 ENE 0,0
17.02.2020 21:00:00 4,2 1,9 7 4 ENE 0,0
17.02.2020 20:00:00 4,6 2,0 6 3 NE 0,0
17.02.2020 19:00:00 4,8 1,5 6 3 NE 0,0
17.02.2020 18:00:00 5,5 1,6 4 2 SSE 0,0
17.02.2020 17:00:00 6,5 1,4 3 2 WSW 0,0
17.02.2020 16:00:00 6,5 1,8 12 6 WSW 0,0
17.02.2020 15:00:00 6,8 1,5 13 7 WSW 0,0
17.02.2020 14:00:00 7,8 1,0 5 3 SSE 0,0
17.02.2020 13:00:00 6,1 0,4 3 2 S 0,0
17.02.2020 12:00:00 4,7 -0,1 2 1 SW 0,0
17.02.2020 11:00:00 3,6 -0,2 3 1 NE 0,0
17.02.2020 10:00:00 2,1 -1,5 3 1 W 0,0
17.02.2020 09:00:00 1,1 -2,0 0 0 N 0,0
17.02.2020 08:00:00 0,6 -2,0 3 2 NNE 0,0
17.02.2020 07:00:00 0,4 -2,0 2 1 NE 0,0
17.02.2020 06:00:00 0,0 -2,1 2 1 SW 0,0
17.02.2020 05:00:00 -0,4 -2,1 0 0 N 0,0
17.02.2020 04:00:00 -0,2 -2,3 2 1 NE 0,0
17.02.2020 03:00:00 -0,2 -2,4 3 1 ENE 0,0
17.02.2020 02:00:00 0,8 -1,8 3 1 SE 0,0
17.02.2020 01:00:00 0,9 -1,3 4 2 ENE 0,0
17.02.2020 00:00:00 1,1 -1,5 4 2 ENE 0,0
16.02.2020 23:00:00 1,4 -1,2 3 1 ENE 0,0
16.02.2020 22:00:00 1,8 -0,9 2 1 S 0,0
16.02.2020 21:00:00 2,7 -0,4 2 1 SSE 0,0
16.02.2020 20:00:00 3,7 0,0 4 2 E 0,0
16.02.2020 19:00:00 5,2 -0,8 5 3 NE 0,0
16.02.2020 18:00:00 8,5 -0,8 8 5 NNE 0,0
16.02.2020 17:00:00 10,5 -1,9 5 3 NNW 0,0
16.02.2020 16:00:00 12,3 -4,4 3 2 NW 0,0
16.02.2020 15:00:00 11,4 -6,0 3 2 N 0,0
16.02.2020 14:00:00 11,1 -6,8 6 3 SSW 0,0
16.02.2020 13:00:00 10,1 -4,7 3 1 SSW 0,0
16.02.2020 12:00:00 8,0 -7,7 2 1 ENE 0,0
16.02.2020 11:00:00 6,0 -5,4 3 1 WSW 0,0
16.02.2020 10:00:00 2,4 -7,5 2 1 SSW 0,0
16.02.2020 09:00:00 -0,4 -6,8 0 0 N 0,0
16.02.2020 08:00:00 -1,1 -7,5 4 2 ENE 0,0
16.02.2020 07:00:00 -1,2 -7,1 0 0 N 0,0
16.02.2020 06:00:00 -1,3 -7,0 0 0 N 0,0
16.02.2020 05:00:00 -1,6 -7,7 2 1 S 0,0
16.02.2020 04:00:00 -1,1 -7,3 4 2 ENE 0,0
16.02.2020 03:00:00 -0,8 -7,6 0 0 N 0,0
16.02.2020 02:00:00 -0,7 -6,9 5 3 ENE 0,0
16.02.2020 01:00:00 -0,4 -7,2 2 1 SSE 0,0
16.02.2020 00:00:00 -0,1 -6,7 3 1 N 0,0
15.02.2020 23:00:00 0,8 -6,5 3 1 E 0,0
15.02.2020 22:00:00 0,8 -6,5 3 2 ESE 0,0
15.02.2020 21:00:00 1,3 -6,1 0 0 N 0,0
15.02.2020 20:00:00 1,6 -6,2 0 0 N 0,0
15.02.2020 19:00:00 2,8 -5,8 3 1 E 0,0
15.02.2020 18:00:00 4,6 -5,2 7 4 ENE 0,0
15.02.2020 17:00:00 11,3 -7,5 6 3 SW 0,0
15.02.2020 16:00:00 12,0 -8,5 7 4 S 0,0
15.02.2020 15:00:00 12,9 -8,9 4 2 WSW 0,0
15.02.2020 14:00:00 12,5 -9,9 2 1 S 0,0
15.02.2020 13:00:00 9,8 -8,8 0 0 N 0,0
15.02.2020 12:00:00 6,1 -6,8 2 1 S 0,0
15.02.2020 11:00:00 2,4 -8,1 0 0 N 0,0
15.02.2020 10:00:00 -1,2 -9,8 2 1 ESE 0,0
15.02.2020 09:00:00 -2,6 -9,5 0 0 N 0,0
15.02.2020 08:00:00 -2,7 -9,8 0 0 N 0,0
15.02.2020 07:00:00 -3,1 -9,8 0 0 N 0,0
15.02.2020 06:00:00 -2,7 -9,8 2 1 E 0,0
15.02.2020 05:00:00 -2,8 -9,9 2 1 SE 0,0
15.02.2020 04:00:00 -2,8 -9,7 2 1 E 0,0
15.02.2020 03:00:00 -2,6 -9,5 2 1 SW 0,0
15.02.2020 02:00:00 -2,6 -9,1 4 2 E 0,0
15.02.2020 01:00:00 -2,0 -9,2 3 1 S 0,0
15.02.2020 00:00:00 -1,6 -9,0 4 2 SSE 0,0
14.02.2020 23:00:00 -1,0 -8,7 5 3 E 0,0
14.02.2020 22:00:00 -1,0 -8,0 3 1 S 0,0
14.02.2020 21:00:00 -0,1 -7,8 2 1 E 0,0
14.02.2020 20:00:00 0,4 -7,6 9 5 NE 0,0
14.02.2020 19:00:00 1,3 -6,5 3 1 ENE 0,0
14.02.2020 18:00:00 3,1 -5,6 3 2 NNE 0,0
14.02.2020 17:00:00 7,8 -4,0 4 2 ENE 0,0
14.02.2020 16:00:00 8,2 -2,8 5 3 NE 0,0
14.02.2020 15:00:00 8,9 -3,3 10 6 SW 0,0
14.02.2020 14:00:00 8,2 -3,0 6 3 WSW 0,0
14.02.2020 13:00:00 7,4 -3,5 2 1 SW 0,0
14.02.2020 12:00:00 4,9 -4,4 3 2 ESE 0,0
14.02.2020 11:00:00 1,3 -3,8 3 2 SSE 0,0
14.02.2020 10:00:00 -0,7 -3,6 6 3 E 0,0
14.02.2020 09:00:00 -1,1 -3,0 8 4 S 0,0
14.02.2020 08:00:00 -1,3 -4,8 4 2 NE 0,0
14.02.2020 07:00:00 -0,4 -5,6 4 2 N 0,0
14.02.2020 06:00:00 3,3 -7,0 22 12 E 0,0
14.02.2020 05:00:00 1,0 -4,8 17 9 ENE 0,0
14.02.2020 04:00:00 1,5 -4,6 5 3 N 0,0
14.02.2020 03:00:00 2,9 -5,3 13 7 ENE 0,0
14.02.2020 02:00:00 1,9 -2,8 15 8 ENE 0,0
14.02.2020 01:00:00 1,7 -0,6 16 9 SSW 0,0
14.02.2020 00:00:00 0,7 0,3 4 2 ESE 0,0
13.02.2020 23:00:00 0,7 0,0 4 2 SSE 1,2
13.02.2020 22:00:00 1,0 0,1 4 2 ESE 0,6
13.02.2020 21:00:00 0,9 -0,1 3 2 NNE 0,0
13.02.2020 20:00:00 1,0 -0,2 11 6 WNW 0,0
13.02.2020 19:00:00 0,6 -0,3 7 4 ENE 0,4
13.02.2020 18:00:00 0,4 -0,2 8 4 NE 1,0
13.02.2020 17:00:00 0,6 -0,6 5 3 NNE 0,2
13.02.2020 16:00:00 1,1 -0,7 7 4 WNW 0,0
13.02.2020 15:00:00 2,5 -2,6 24 13 WSW 0,0
13.02.2020 14:00:00 5,0 -8,9 8 4 WSW 0,0
13.02.2020 13:00:00 6,5 -11,7 3 1 S 0,0
13.02.2020 12:00:00 5,0 -15,0 0 0 N 0,0
13.02.2020 11:00:00 0,1 -11,0 2 1 ESE 0,0
13.02.2020 10:00:00 -3,8 -13,8 2 1 S 0,0
13.02.2020 09:00:00 -5,3 -13,2 5 3 ESE 0,0
13.02.2020 08:00:00 -6,2 -12,7 2 1 E 0,0
13.02.2020 07:00:00 -6,3 -13,2 0 0 N 0,0
13.02.2020 06:00:00 -6,2 -13,3 3 2 NE 0,0
13.02.2020 05:00:00 -6,1 -13,0 2 1 ESE 0,0
13.02.2020 04:00:00 -5,8 -13,4 0 0 N 0,0
13.02.2020 03:00:00 -5,2 -13,5 0 0 N 0,0
13.02.2020 02:00:00 -5,2 -13,3 2 1 WSW 0,0
13.02.2020 01:00:00 -4,4 -13,5 3 2 S 0,0
13.02.2020 00:00:00 -4,3 -13,2 2 1 ESE 0,0
12.02.2020 23:00:00 -3,4 -13,7 3 2 SE 0,0
12.02.2020 22:00:00 -3,4 -14,2 0 0 N 0,0
12.02.2020 21:00:00 -2,7 -13,3 2 1 SE 0,0
12.02.2020 20:00:00 -2,3 -14,1 3 2 E 0,0
12.02.2020 19:00:00 -1,4 -13,3 3 2 ESE 0,0
12.02.2020 18:00:00 1,7 -16,8 17 9 ENE 0,0
12.02.2020 17:00:00 4,7 -18,3 12 7 ENE 0,0
12.02.2020 16:00:00 5,8 -21,5 16 9 ENE 0,0
12.02.2020 15:00:00 6,6 -19,9 9 5 NE 0,0
12.02.2020 14:00:00 5,8 -20,6 15 8 NE 0,0
12.02.2020 13:00:00 6,6 -16,8 3 2 NNE 0,0
12.02.2020 12:00:00 3,1 -10,9 4 2 SE 0,0
12.02.2020 11:00:00 -1,3 -10,2 3 1 E 0,0
12.02.2020 10:00:00 -4,3 -11,3 2 1 ESE 0,0
12.02.2020 09:00:00 -4,8 -11,0 3 2 SSW 0,0
12.02.2020 08:00:00 -4,8 -11,4 4 2 SSW 0,0
12.02.2020 07:00:00 -4,4 -10,2 4 2 E 0,0

tt = Température de l'air
td = dewpoint
ff = Vitesse du vent
dd = Direction du vent
rr = Quantités de précipitations

stations d'obs. à proximité